KBBB

Benson Municipal Airport

Benson, Minnesota, USA
METAR KBBB 211535Z AUTO 21006KT 10SM CLR 10/M01 A3042 RMK AO2
Observed Flight Rules
Apr-21 @ 15:35 UTC (5 minutes ago) Visual Flight Rules
Wind Visibility Clouds
210° at 6 knots 10 miles
  • Clear skies
Temperatures Readings
Current 10°C / 50°F
Dewpoint -1°C / 30°F
Humidity 47%
Altimeter 30.42" Hg
Pressure 1030 hPa
Elevation 317
METAR KBBB 211535Z AUTO 21006KT 10SM CLR 10/M01 A3042 RMK AO2
Observed Flight Rules
Apr-21 @ 15:35 UTC
(5 minutes ago)
VFR
Wind Visibility
210° at 6 knots 10 miles
Clouds
  • Clear skies
Temperature Dewpoint
10°C / 50°F -1°C / 30°F
Humidity Altimeter Pressure
47% 30.42" Hg 1030 hPa